Time;durP1;ratioP1;P1;durP2;ratioP2;P2;SDS_P1;SDS_P2;PMS_P1;PMS_P2;Temp;Humidity;BMP_temperature;BMP_pressure;BME280_temperature;BME280_humidity;BME280_pressure;Samples;Min_cycle;Max_cycle;Signal;HPM_P1;HPM_P2
2022/11/19 00:00:44;;;;;;;9.65;9.25;;;;;;;-143.83;100.00;62900.06;4923720;29;20115;-70
2022/11/19 00:03:14;;;;;;;9.60;9.20;;;;;;;-143.83;100.00;62900.06;4925797;29;20475;-69
2022/11/19 00:05:41;;;;;;;9.75;9.32;;;;;;;-143.83;100.00;62900.06;4921637;29;20031;-69
2022/11/19 00:08:08;;;;;;;9.80;9.40;;;;;;;-143.83;100.00;62900.06;4925226;29;20048;-71
2022/11/19 00:10:35;;;;;;;10.35;9.85;;;;;;;-143.83;100.00;62900.06;4929354;29;20079;-69
2022/11/19 00:13:01;;;;;;;9.68;9.27;;;;;;;-143.83;100.00;62900.06;4922287;29;20384;-70
2022/11/19 00:15:28;;;;;;;9.77;9.38;;;;;;;-143.83;100.00;62900.06;4927589;29;20123;-70
2022/11/19 00:17:56;;;;;;;9.70;9.30;;;;;;;-143.83;100.00;62900.06;4911672;29;20032;-70
2022/11/19 00:20:22;;;;;;;10.02;9.52;;;;;;;-143.83;100.00;62900.06;4930158;29;20411;-71
2022/11/19 00:22:52;;;;;;;10.68;10.18;;;;;;;-143.83;100.00;62900.06;4928397;29;20087;-70
2022/11/19 00:25:18;;;;;;;9.88;9.40;;;;;;;-143.83;100.00;62900.06;4914294;29;20054;-70
2022/11/19 00:27:44;;;;;;;10.20;9.70;;;;;;;-143.83;100.00;62900.06;4905712;29;20492;-71
2022/11/19 00:30:11;;;;;;;9.90;9.40;;;;;;;-143.83;100.00;62900.06;4928460;29;20039;-70
2022/11/19 00:32:37;;;;;;;9.73;9.32;;;;;;;-143.83;100.00;62900.06;4923429;29;20039;-71
2022/11/19 00:35:03;;;;;;;9.57;9.18;;;;;;;-143.83;100.00;62900.06;4921416;29;20028;-71
2022/11/19 00:37:29;;;;;;;9.20;8.80;;;;;;;-143.83;100.00;62900.06;4927575;29;20489;-69
2022/11/19 00:39:57;;;;;;;9.90;9.40;;;;;;;-143.83;100.00;62900.06;4925518;29;20050;-71
2022/11/19 00:42:23;;;;;;;9.93;9.43;;;;;;;-143.83;100.00;62900.06;4929013;29;20032;-70
2022/11/19 00:44:49;;;;;;;10.38;9.88;;;;;;;-143.83;100.00;62900.06;4925385;29;20107;-70
2022/11/19 00:47:15;;;;;;;9.82;9.32;;;;;;;-143.83;100.00;62900.06;4927402;29;20099;-71
2022/11/19 00:49:41;;;;;;;9.90;9.40;;;;;;;-143.83;100.00;62900.06;4929371;29;20478;-71
2022/11/19 00:52:07;;;;;;;9.65;9.25;;;;;;;-143.83;100.00;62900.06;4926528;29;20043;-70
2022/11/19 00:54:32;;;;;;;10.20;9.70;;;;;;;-143.83;100.00;62900.06;4922956;29;20044;-71
2022/11/19 00:56:58;;;;;;;9.57;9.18;;;;;;;-143.83;100.00;62900.06;4925739;29;20071;-71
2022/11/19 00:59:23;;;;;;;9.68;9.27;;;;;;;-143.83;100.00;62900.06;4929087;29;20046;-71
2022/11/19 01:01:49;;;;;;;9.68;9.27;;;;;;;-143.83;100.00;62900.06;4904371;29;20040;-70
2022/11/19 01:04:14;;;;;;;9.75;9.32;;;;;;;-143.83;100.00;62900.06;4927904;29;20071;-69
2022/11/19 01:06:40;;;;;;;10.00;9.50;;;;;;;-143.83;100.00;62900.06;4928990;29;20066;-70
2022/11/19 01:09:05;;;;;;;9.60;9.20;;;;;;;-143.83;100.00;62900.06;4926626;29;20055;-70
2022/11/19 01:11:34;;;;;;;9.63;9.20;;;;;;;-143.83;100.00;62900.06;4923250;29;20051;-70
2022/11/19 01:14:01;;;;;;;9.40;9.00;;;;;;;-143.83;100.00;62900.06;4926670;29;20028;-70
2022/11/19 01:16:35;;;;;;;9.40;9.00;;;;;;;-143.83;100.00;62900.06;4926133;29;20063;-70
2022/11/19 01:19:02;;;;;;;9.93;9.43;;;;;;;-143.83;100.00;62900.06;4923137;29;20555;-70
2022/11/19 01:21:30;;;;;;;9.68;9.23;;;;;;;-143.83;100.00;62900.06;4913718;29;20035;-70
2022/11/19 01:23:57;;;;;;;9.55;9.15;;;;;;;-143.83;100.00;62900.06;4928142;29;20074;-69
2022/11/19 01:26:23;;;;;;;9.93;9.43;;;;;;;-143.83;100.00;62900.06;4929900;29;20035;-71
2022/11/19 01:28:50;;;;;;;9.55;9.15;;;;;;;-143.83;100.00;62900.06;4928700;29;20501;-70
2022/11/19 01:31:24;;;;;;;10.10;9.60;;;;;;;-143.83;100.00;62900.06;4921186;29;20091;-74
2022/11/19 01:33:50;;;;;;;9.65;9.25;;;;;;;-143.83;100.00;62900.06;4926002;29;20039;-70
2022/11/19 01:36:25;;;;;;;10.40;9.90;;;;;;;-143.83;100.00;62900.06;4908464;29;20035;-70
2022/11/19 01:38:50;;;;;;;;;;;;;;;-143.83;100.00;62900.06;4924679;29;20031;-69
2022/11/19 01:41:30;;;;;;;10.25;9.75;;;;;;;-143.83;100.00;62900.06;4928076;29;19915;-69
2022/11/19 01:43:59;;;;;;;10.02;9.52;;;;;;;-143.83;100.00;62900.06;4928214;29;20040;-70
2022/11/19 01:46:28;;;;;;;10.13;9.63;;;;;;;-143.83;100.00;62900.06;4921900;29;20047;-70
2022/11/19 01:49:13;;;;;;;10.07;9.57;;;;;;;-143.83;100.00;62900.06;4928214;29;20039;-70
2022/11/19 01:51:44;;;;;;;10.27;9.77;;;;;;;-143.83;100.00;62900.06;4922190;29;20087;-70
2022/11/19 01:54:28;;;;;;;10.35;9.85;;;;;;;-143.83;100.00;62900.06;4927035;29;20028;-70
2022/11/19 01:56:59;;;;;;;9.90;9.40;;;;;;;-143.83;100.00;62900.06;4927099;29;20080;-70
2022/11/19 01:59:26;;;;;;;9.70;9.30;;;;;;;-143.83;100.00;62900.06;4919153;29;20480;-70
2022/11/19 02:01:52;;;;;;;9.60;9.20;;;;;;;-143.83;100.00;62900.06;4927132;29;20039;-70
2022/11/19 02:04:18;;;;;;;10.00;9.50;;;;;;;-143.83;100.00;62900.06;4926590;29;20074;-71
2022/11/19 02:06:44;;;;;;;11.07;10.48;;;;;;;-143.83;100.00;62900.06;4930033;29;20438;-70
2022/11/19 02:09:10;;;;;;;9.60;9.20;;;;;;;-143.83;100.00;62900.06;4927297;29;20031;-70
2022/11/19 02:11:50;;;;;;;10.23;9.73;;;;;;;-143.83;100.00;62900.06;4911669;29;20492;-70
2022/11/19 02:14:56;;;;;;;10.20;9.70;;;;;;;-143.83;100.00;62900.06;4926877;29;20024;-70
2022/11/19 02:17:48;;;;;;;9.90;9.40;;;;;;;-143.83;100.00;62900.06;4924655;29;20024;-70
2022/11/19 02:20:22;;;;;;;9.90;9.40;;;;;;;-143.83;100.00;62900.06;4929100;29;20502;-71
2022/11/19 02:22:54;;;;;;;10.23;9.73;;;;;;;-143.83;100.00;62900.06;4931735;29;20055;-70
2022/11/19 02:25:28;;;;;;;10.18;9.68;;;;;;;-143.83;100.00;62900.06;4924822;29;20054;-70
2022/11/19 02:28:15;;;;;;;10.32;9.82;;;;;;;-143.83;100.00;62900.06;4928672;29;20079;-71
2022/11/19 02:30:47;;;;;;;10.02;9.52;;;;;;;-143.83;100.00;62900.06;4914432;29;20383;-71
2022/11/19 02:33:17;;;;;;;9.98;9.48;;;;;;;-143.83;100.00;62900.06;4922090;29;20036;-71
2022/11/19 02:35:53;;;;;;;9.73;9.32;;;;;;;-143.83;100.00;62900.06;4929691;29;20103;-70
2022/11/19 02:38:40;;;;;;;10.55;10.05;;;;;;;-143.83;100.00;62900.06;4925932;29;20118;-70
2022/11/19 02:41:44;;;;;;;9.75;9.32;;;;;;;-143.83;100.00;62900.06;4923850;29;20030;-70
2022/11/19 02:47:19;;;;;;;9.82;9.35;;;;;;;-143.83;100.00;62900.06;4927086;29;20087;-71
2022/11/19 02:49:44;;;;;;;10.10;9.60;;;;;;;-143.83;100.00;62900.06;4929038;29;20028;-71
2022/11/19 02:52:14;;;;;;;10.70;10.20;;;;;;;-143.83;100.00;62900.06;4926191;29;20024;-71
2022/11/19 02:54:40;;;;;;;9.90;9.45;;;;;;;-143.83;100.00;62900.06;4908381;29;20100;-71
2022/11/19 02:57:05;;;;;;;10.05;9.55;;;;;;;-143.83;100.00;62900.06;4929669;29;20491;-71
2022/11/19 03:05:20;;;;;;;9.70;9.23;;;;;;;-143.83;100.00;62900.06;4924382;29;20030;-69
2022/11/19 03:07:47;;;;;;;9.88;9.38;;;;;;;-143.83;100.00;62900.06;4925241;29;20034;-69
2022/11/19 03:10:16;;;;;;;9.82;9.32;;;;;;;-143.83;100.00;62900.06;4906551;29;20399;-70
2022/11/19 03:16:40;;;;;;;10.15;9.65;;;;;;;-143.83;100.00;62900.06;4928345;29;20027;-70
2022/11/19 03:19:14;;;;;;;10.23;9.73;;;;;;;-143.83;100.00;62900.06;4931235;29;20476;-70
2022/11/19 03:21:54;;;;;;;10.07;9.57;;;;;;;-143.83;100.00;62900.06;4906671;29;20067;-70
2022/11/19 03:24:29;;;;;;;10.25;9.75;;;;;;;-143.83;100.00;62900.06;4927663;29;20043;-70
2022/11/19 03:27:07;;;;;;;10.43;9.93;;;;;;;-143.83;100.00;62900.06;4928076;29;20028;-69
2022/11/19 03:29:36;;;;;;;10.27;9.77;;;;;;;-143.83;100.00;62900.06;4929756;29;20082;-69
2022/11/19 03:32:11;;;;;;;9.85;9.35;;;;;;;-143.83;100.00;62900.06;4930424;29;20032;-69
2022/11/19 03:34:40;;;;;;;10.10;9.60;;;;;;;-143.83;100.00;62900.06;4929156;29;20024;-69
2022/11/19 03:37:08;;;;;;;9.98;9.48;;;;;;;-143.83;100.00;62900.06;4911018;29;20051;-69
2022/11/19 03:39:35;;;;;;;9.85;9.35;;;;;;;-143.83;100.00;62900.06;4927571;29;20024;-69
2022/11/19 03:42:04;;;;;;;10.05;9.55;;;;;;;-143.83;100.00;62900.06;4911736;29;20028;-69
2022/11/19 03:44:37;;;;;;;10.15;9.65;;;;;;;-143.83;100.00;62900.06;4906914;29;20118;-69
2022/11/19 03:47:13;;;;;;;10.43;9.93;;;;;;;-143.83;100.00;62900.06;4922493;29;20036;-69
2022/11/19 03:49:43;;;;;;;10.02;9.52;;;;;;;-143.83;100.00;62900.06;4925324;29;20063;-69
2022/11/19 03:52:16;;;;;;;10.25;9.75;;;;;;;-143.83;100.00;62900.06;4927264;29;20066;-71
2022/11/19 03:54:42;;;;;;;9.90;9.40;;;;;;;-143.83;100.00;62900.06;4924554;29;20028;-70
2022/11/19 03:57:11;;;;;;;11.05;10.45;;;;;;;-143.83;100.00;62900.06;4911266;29;20082;-69
2022/11/19 03:59:36;;;;;;;10.18;9.68;;;;;;;-143.83;100.00;62900.06;4926692;29;20079;-70
2022/11/19 04:02:10;;;;;;;10.18;9.68;;;;;;;-143.83;100.00;62900.06;4920943;29;20356;-70
2022/11/19 04:04:37;;;;;;;9.77;9.27;;;;;;;-143.83;100.00;62900.06;4929629;29;20062;-70
2022/11/19 04:07:06;;;;;;;9.90;9.40;;;;;;;-143.83;100.00;62900.06;4911835;29;20506;-69
2022/11/19 04:09:32;;;;;;;10.45;9.95;;;;;;;-143.83;100.00;62900.06;4926112;29;20106;-69
2022/11/19 04:11:58;;;;;;;10.90;10.30;;;;;;;-143.83;100.00;62900.06;4912182;29;20118;-71
2022/11/19 04:14:23;;;;;;;10.35;9.85;;;;;;;-143.83;100.00;62900.06;4923868;29;20028;-71
2022/11/19 04:16:49;;;;;;;10.43;9.93;;;;;;;-143.83;100.00;62900.06;4923009;29;20074;-71
2022/11/19 04:19:16;;;;;;;11.27;10.68;;;;;;;-143.83;100.00;62900.06;4923550;29;20111;-71
2022/11/19 04:21:42;;;;;;;10.38;9.88;;;;;;;-143.83;100.00;62900.06;4929658;29;20039;-71
2022/11/19 04:24:07;;;;;;;10.38;9.88;;;;;;;-143.83;100.00;62900.06;4908285;29;20044;-71
2022/11/19 04:26:33;;;;;;;10.13;9.63;;;;;;;-143.83;100.00;62900.06;4926769;29;20035;-71
2022/11/19 04:28:58;;;;;;;10.32;9.82;;;;;;;-143.83;100.00;62900.06;4924160;29;20055;-70
2022/11/19 04:31:24;;;;;;;10.20;9.70;;;;;;;-143.83;100.00;62900.06;4931358;29;20039;-70
2022/11/19 04:33:49;;;;;;;10.35;9.85;;;;;;;-143.83;100.00;62900.06;4923223;29;20483;-71
2022/11/19 04:36:15;;;;;;;10.43;9.93;;;;;;;-143.83;100.00;62900.06;4924438;29;20047;-71
2022/11/19 04:38:40;;;;;;;10.35;9.85;;;;;;;-143.83;100.00;62900.06;4924214;29;20031;-70
2022/11/19 04:41:06;;;;;;;11.10;10.50;;;;;;;-143.83;100.00;62900.06;4912528;29;20479;-70
2022/11/19 04:43:31;;;;;;;10.45;9.95;;;;;;;-143.83;100.00;62900.06;4926256;29;20141;-69
2022/11/19 04:45:57;;;;;;;11.13;10.52;;;;;;;-143.83;100.00;62900.06;4931023;29;20368;-70
2022/11/19 04:48:22;;;;;;;10.00;9.50;;;;;;;-143.83;100.00;62900.06;4931204;29;20030;-71
2022/11/19 04:50:48;;;;;;;10.57;10.07;;;;;;;-143.83;100.00;62900.06;4928493;29;20055;-69
2022/11/19 04:53:13;;;;;;;10.32;9.82;;;;;;;-143.83;100.00;62900.06;4930167;29;20123;-70
2022/11/19 04:55:38;;;;;;;10.63;10.13;;;;;;;-143.83;100.00;62900.06;4912634;29;20031;-70
2022/11/19 04:58:04;;;;;;;10.52;10.02;;;;;;;-143.83;100.00;62900.06;4905316;29;20458;-69
2022/11/19 05:00:29;;;;;;;10.50;10.00;;;;;;;-143.83;100.00;62900.06;4920479;29;20511;-69
2022/11/19 05:02:55;;;;;;;9.98;9.48;;;;;;;-143.83;100.00;62900.06;4923406;29;20027;-69
2022/11/19 05:05:20;;;;;;;10.20;9.70;;;;;;;-143.83;100.00;62900.06;4909241;29;20043;-71
2022/11/19 05:07:46;;;;;;;10.07;9.57;;;;;;;-143.83;100.00;62900.06;4925740;29;20031;-70
2022/11/19 05:10:11;;;;;;;9.98;9.48;;;;;;;-143.83;100.00;62900.06;4925126;29;20115;-70
2022/11/19 05:12:37;;;;;;;10.07;9.57;;;;;;;-143.83;100.00;62900.06;4924920;29;20039;-69
2022/11/19 05:15:03;;;;;;;10.65;10.13;;;;;;;-143.83;100.00;62900.06;4928350;29;20039;-69
2022/11/19 05:17:28;;;;;;;10.23;9.73;;;;;;;-143.83;100.00;62900.06;4925091;29;20035;-69
2022/11/19 05:19:54;;;;;;;10.05;9.55;;;;;;;-143.83;100.00;62900.06;4923690;29;20099;-69
2022/11/19 05:22:19;;;;;;;10.80;10.20;;;;;;;-143.83;100.00;62900.06;4921261;29;20036;-70
2022/11/19 05:24:45;;;;;;;10.00;9.50;;;;;;;-143.83;100.00;62900.06;4926771;29;20080;-72
2022/11/19 05:27:10;;;;;;;9.90;9.40;;;;;;;-143.83;100.00;62900.06;4927465;29;20049;-71
2022/11/19 05:29:35;;;;;;;10.13;9.63;;;;;;;-143.83;100.00;62900.06;4925468;29;20118;-71
2022/11/19 05:32:01;;;;;;;10.55;10.05;;;;;;;-143.83;100.00;62900.06;4922992;29;20451;-70
2022/11/19 05:34:26;;;;;;;9.90;9.40;;;;;;;-143.83;100.00;62900.06;4918985;29;20028;-69
2022/11/19 05:36:52;;;;;;;9.82;9.40;;;;;;;-143.83;100.00;62900.06;4925872;29;20206;-73
2022/11/19 05:39:17;;;;;;;10.13;9.63;;;;;;;-143.83;100.00;62900.06;4928516;29;20035;-71
2022/11/19 05:41:43;;;;;;;10.30;9.80;;;;;;;-143.83;100.00;62900.06;4920497;29;20028;-71
2022/11/19 05:44:08;;;;;;;10.48;9.98;;;;;;;-143.83;100.00;62900.06;4924113;29;20056;-69
2022/11/19 05:46:33;;;;;;;10.40;9.90;;;;;;;-143.83;100.00;62900.06;4923739;29;20031;-70
2022/11/19 05:48:59;;;;;;;10.15;9.65;;;;;;;-143.83;100.00;62900.06;4929898;29;20372;-69
2022/11/19 05:51:25;;;;;;;10.82;10.27;;;;;;;-143.83;100.00;62900.06;4924694;29;20055;-69
2022/11/19 05:53:50;;;;;;;11.00;10.40;;;;;;;-143.83;100.00;62900.06;4919046;29;20431;-70
2022/11/19 05:56:16;;;;;;;10.32;9.82;;;;;;;-143.83;100.00;62900.06;4925061;29;20043;-71
2022/11/19 05:58:41;;;;;;;10.77;10.18;;;;;;;-143.83;100.00;62900.06;4908794;29;20048;-70
2022/11/19 06:01:06;;;;;;;10.48;9.98;;;;;;;-143.83;100.00;62900.06;4926713;29;20397;-71
2022/11/19 06:03:32;;;;;;;10.30;9.80;;;;;;;-143.83;100.00;62900.06;4931692;29;20048;-71
2022/11/19 06:05:57;;;;;;;9.60;9.20;;;;;;;-143.83;100.00;62900.06;4925159;29;20111;-71
2022/11/19 06:08:23;;;;;;;11.00;10.40;;;;;;;-143.83;100.00;62900.06;4932091;29;20376;-71
2022/11/19 06:10:48;;;;;;;10.23;9.73;;;;;;;-143.83;100.00;62900.06;4929952;29;20031;-70
2022/11/19 06:13:14;;;;;;;10.73;10.18;;;;;;;-143.83;100.00;62900.06;4927779;29;20491;-70
2022/11/19 06:15:39;;;;;;;10.20;9.70;;;;;;;-143.83;100.00;62900.06;4926179;29;20032;-71
2022/11/19 06:18:05;;;;;;;9.85;9.35;;;;;;;-143.83;100.00;62900.06;4928313;29;20479;-71
2022/11/19 06:20:30;;;;;;;10.50;10.00;;;;;;;-143.83;100.00;62900.06;4931230;29;20028;-70
2022/11/19 06:22:56;;;;;;;10.10;9.60;;;;;;;-143.83;100.00;62900.06;4921564;29;20116;-71
2022/11/19 06:25:22;;;;;;;9.95;9.45;;;;;;;-143.83;100.00;62900.06;4920238;29;20024;-71
2022/11/19 06:27:48;;;;;;;10.57;10.07;;;;;;;-143.83;100.00;62900.06;4910808;29;20102;-71
2022/11/19 06:30:15;;;;;;;10.35;9.85;;;;;;;-143.83;100.00;62900.06;4899184;29;20035;-70
2022/11/19 06:32:41;;;;;;;10.23;9.73;;;;;;;-143.83;100.00;62900.06;4913572;29;20780;-71
2022/11/19 06:35:07;;;;;;;10.60;10.10;;;;;;;-143.83;100.00;62900.06;4917198;29;20036;-70
2022/11/19 06:37:33;;;;;;;10.63;10.10;;;;;;;-143.83;100.00;62900.06;4917197;29;20099;-70
2022/11/19 06:39:58;;;;;;;11.05;10.45;;;;;;;-143.83;100.00;62900.06;4914737;29;20067;-71
2022/11/19 06:42:36;;;;;;;10.20;9.70;;;;;;;-143.83;100.00;62900.06;4903426;29;20031;-76
2022/11/19 06:45:06;;;;;;;9.77;9.27;;;;;;;-143.83;100.00;62900.06;4917291;29;20040;-76
2022/11/19 06:47:32;;;;;;;9.95;9.45;;;;;;;-143.83;100.00;62900.06;4903234;29;20170;-76
2022/11/19 06:49:58;;;;;;;9.90;9.40;;;;;;;-143.83;100.00;62900.06;4917321;29;20066;-76
2022/11/19 06:52:24;;;;;;;10.93;10.32;;;;;;;-143.83;100.00;62900.06;4917310;29;20068;-75
2022/11/19 06:54:49;;;;;;;9.90;9.40;;;;;;;-143.83;100.00;62900.06;4908957;29;20115;-67
2022/11/19 06:57:15;;;;;;;10.40;9.90;;;;;;;-143.83;100.00;62900.06;4917556;29;20483;-72
2022/11/19 06:59:40;;;;;;;10.55;10.05;;;;;;;-143.83;100.00;62900.06;4890841;29;20028;-71
2022/11/19 07:02:07;;;;;;;11.25;10.65;;;;;;;-143.83;100.00;62900.06;4916888;29;20063;-72
2022/11/19 07:04:32;;;;;;;10.07;9.57;;;;;;;-143.83;100.00;62900.06;4896032;29;20055;-72
2022/11/19 07:06:58;;;;;;;10.95;10.40;;;;;;;-143.83;100.00;62900.06;4912641;29;20071;-71
2022/11/19 07:09:23;;;;;;;11.30;10.70;;;;;;;-143.83;100.00;62900.06;4916746;29;20458;-70
2022/11/19 07:11:49;;;;;;;10.80;10.25;;;;;;;-143.83;100.00;62900.06;4914880;29;20024;-72
2022/11/19 07:14:14;;;;;;;10.30;9.80;;;;;;;-143.83;100.00;62900.06;4899381;29;20143;-71
2022/11/19 07:16:39;;;;;;;10.13;9.63;;;;;;;-143.83;100.00;62900.06;4917293;29;20568;-70
2022/11/19 07:19:06;;;;;;;10.25;9.75;;;;;;;-143.83;100.00;62900.06;4917190;29;20124;-73
2022/11/19 07:21:32;;;;;;;10.00;9.50;;;;;;;-143.83;100.00;62900.06;4917812;29;20046;-74
2022/11/19 07:23:59;;;;;;;9.77;9.27;;;;;;;-143.83;100.00;62900.06;4896847;29;20547;-74
2022/11/19 07:26:25;;;;;;;10.00;9.50;;;;;;;-143.83;100.00;62900.06;4908280;29;20105;-72
2022/11/19 07:28:51;;;;;;;9.88;9.38;;;;;;;-143.83;100.00;62900.06;4904986;29;20180;-72
2022/11/19 07:31:17;;;;;;;10.90;10.30;;;;;;;-143.83;100.00;62900.06;4915895;29;20433;-74
2022/11/19 07:33:43;;;;;;;11.38;10.77;;;;;;;-143.83;100.00;62900.06;4910861;29;20407;-72
2022/11/19 07:36:10;;;;;;;9.93;9.43;;;;;;;-143.83;100.00;62900.06;4908367;29;20043;-73
2022/11/19 07:38:37;;;;;;;10.05;9.55;;;;;;;-143.83;100.00;62900.06;4908341;29;20055;-76
2022/11/19 07:42:47;;;;;;;10.00;9.50;;;;;;;-143.83;100.00;62900.06;4910966;29;20036;-73
2022/11/19 07:43:50;;;;;;;10.98;10.38;;;;;;;-143.83;100.00;62900.06;4901769;29;20048;-79
2022/11/19 07:46:16;;;;;;;10.43;9.93;;;;;;;-143.83;100.00;62900.06;4890649;29;20040;-79
2022/11/19 07:48:41;;;;;;;10.38;9.88;;;;;;;-143.83;100.00;62900.06;4909209;29;20024;-78
2022/11/19 07:51:07;;;;;;;11.20;10.60;;;;;;;-143.83;100.00;62900.06;4892036;29;20511;-74
2022/11/19 07:53:33;;;;;;;11.48;10.88;;;;;;;-143.83;100.00;62900.06;4902194;29;20028;-74
2022/11/19 07:55:59;;;;;;;11.10;10.50;;;;;;;-143.83;100.00;62900.06;4903157;29;20438;-74
2022/11/19 07:58:25;;;;;;;10.27;9.77;;;;;;;-143.83;100.00;62900.06;4905893;29;20036;-74
2022/11/19 08:00:50;;;;;;;10.65;10.10;;;;;;;-143.83;100.00;62900.06;4901086;29;20032;-79
2022/11/19 08:03:16;;;;;;;11.80;11.10;;;;;;;-143.83;100.00;62900.06;4911412;29;20110;-81
2022/11/19 08:05:41;;;;;;;10.13;9.63;;;;;;;-143.83;100.00;62900.06;4880069;29;20148;-82
2022/11/19 08:08:07;;;;;;;10.20;9.70;;;;;;;-143.83;100.00;62900.06;4906641;29;20041;-75
2022/11/19 08:10:34;;;;;;;10.82;10.27;;;;;;;-143.83;100.00;62900.06;4905065;29;20027;-75
2022/11/19 08:13:02;;;;;;;10.25;9.75;;;;;;;-143.83;100.00;62900.06;4905762;29;20029;-78
2022/11/19 08:15:30;;;;;;;10.55;10.05;;;;;;;-143.83;100.00;62900.06;4911398;29;20032;-76
2022/11/19 08:18:12;;;;;;;10.63;10.10;;;;;;;-143.83;100.00;62900.06;4909404;29;20407;-76
2022/11/19 08:20:43;;;;;;;10.20;9.70;;;;;;;-143.83;100.00;62900.06;4896391;29;20020;-74
2022/11/19 08:23:11;;;;;;;10.40;9.90;;;;;;;-143.83;100.00;62900.06;4913118;29;20078;-77
2022/11/19 08:25:37;;;;;;;10.43;9.93;;;;;;;-143.83;100.00;62900.06;4928387;29;20480;-76
2022/11/19 08:28:04;;;;;;;10.90;10.30;;;;;;;-143.83;100.00;62900.06;4926732;29;20028;-75
2022/11/19 08:30:31;;;;;;;9.98;9.48;;;;;;;-143.83;100.00;62900.06;4920078;29;20059;-75
2022/11/19 08:32:56;;;;;;;10.27;9.77;;;;;;;-143.83;100.00;62900.06;4908576;29;20025;-76
2022/11/19 08:35:23;;;;;;;10.20;9.70;;;;;;;-143.83;100.00;62900.06;4919391;29;20032;-75
2022/11/19 08:37:48;;;;;;;10.40;9.90;;;;;;;-143.83;100.00;62900.06;4904596;29;20038;-73
2022/11/19 08:40:16;;;;;;;9.95;9.45;;;;;;;-143.83;100.00;62900.06;4924076;29;20391;-77
2022/11/19 08:42:59;;;;;;;9.90;9.40;;;;;;;-143.83;100.00;62900.06;4928702;29;20028;-77
2022/11/19 08:45:37;;;;;;;10.37;9.87;;;;;;;-143.83;100.00;62900.06;4925664;29;20079;-77
2022/11/19 08:48:09;;;;;;;10.93;10.32;;;;;;;-143.83;100.00;62900.06;4926871;29;20027;-76
2022/11/19 08:50:35;;;;;;;9.43;9.02;;;;;;;-143.83;100.00;62900.06;4926373;29;20038;-77
2022/11/19 08:53:04;;;;;;;10.48;9.98;;;;;;;-143.83;100.00;62900.06;4924636;29;20119;-75
2022/11/19 08:55:31;;;;;;;10.20;9.70;;;;;;;-143.83;100.00;62900.06;4921771;29;20028;-79
2022/11/19 08:58:06;;;;;;;10.40;9.88;;;;;;;-143.83;100.00;62900.06;4895500;29;20036;-76
2022/11/19 09:00:35;;;;;;;10.10;9.60;;;;;;;-143.83;100.00;62900.06;4910224;29;20823;-74
2022/11/19 09:03:00;;;;;;;10.20;9.70;;;;;;;-143.83;100.00;62900.06;4926644;29;20039;-81
2022/11/19 09:05:26;;;;;;;11.20;10.60;;;;;;;-143.83;100.00;62900.06;4925466;29;20395;-76
2022/11/19 09:07:54;;;;;;;11.10;10.50;;;;;;;-143.83;100.00;62900.06;4904261;29;20483;-78
2022/11/19 09:10:20;;;;;;;11.63;11.00;;;;;;;-143.83;100.00;62900.06;4906425;29;20040;-75
2022/11/19 09:12:46;;;;;;;10.10;9.60;;;;;;;-143.83;100.00;62900.06;4920849;29;20047;-76
2022/11/19 09:15:12;;;;;;;11.23;10.63;;;;;;;-143.83;100.00;62900.06;4921826;29;20046;-75
2022/11/19 09:17:37;;;;;;;11.25;10.65;;;;;;;-143.83;100.00;62900.06;4907646;29;20546;-76
2022/11/19 09:20:05;;;;;;;10.27;9.77;;;;;;;-143.83;100.00;62900.06;4923018;29;20083;-75
2022/11/19 09:22:31;;;;;;;10.48;9.98;;;;;;;-143.83;100.00;62900.06;4918821;29;20066;-76
2022/11/19 09:24:57;;;;;;;10.18;9.68;;;;;;;-143.83;100.00;62900.06;4906041;29;20558;-76
2022/11/19 09:27:24;;;;;;;10.95;10.35;;;;;;;-143.83;100.00;62900.06;4924501;29;20113;-70
2022/11/19 09:29:49;;;;;;;10.07;9.57;;;;;;;-143.83;100.00;62900.06;4921420;29;20028;-76
2022/11/19 09:32:15;;;;;;;10.82;10.25;;;;;;;-143.83;100.00;62900.06;4907649;29;20028;-76
2022/11/19 09:34:40;;;;;;;10.82;10.27;;;;;;;-143.83;100.00;62900.06;4921935;29;20043;-78
2022/11/19 09:37:07;;;;;;;10.00;9.50;;;;;;;-143.83;100.00;62900.06;4923876;29;20027;-77
2022/11/19 09:39:32;;;;;;;9.57;9.18;;;;;;;-143.83;100.00;62900.06;4921226;29;20024;-80
2022/11/19 09:42:15;;;;;;;9.93;9.43;;;;;;;-143.83;100.00;62900.06;4909483;29;20039;-81
2022/11/19 09:45:09;;;;;;;10.82;10.25;;;;;;;-143.83;100.00;62900.06;4932383;29;20092;-81
2022/11/19 09:47:53;;;;;;;9.73;9.25;;;;;;;-143.83;100.00;62900.06;4914889;29;20031;-80
2022/11/19 09:50:25;;;;;;;11.13;10.52;;;;;;;-143.83;100.00;62900.06;4922027;29;20582;-77
2022/11/19 09:52:59;;;;;;;10.32;9.82;;;;;;;-143.83;100.00;62900.06;4892797;29;20048;-76
2022/11/19 09:55:39;;;;;;;;;;;;;;;-143.83;100.00;62900.06;4923705;29;20087;-82
2022/11/19 09:58:13;;;;;;;10.55;10.05;;;;;;;-143.83;100.00;62900.06;4919433;29;19967;-79
2022/11/19 10:00:39;;;;;;;10.80;10.23;;;;;;;-143.83;100.00;62900.06;4932492;29;20059;-78
2022/11/19 10:03:13;;;;;;;9.75;9.32;;;;;;;-143.83;100.00;62900.06;4935787;29;20051;-80
2022/11/19 10:06:06;;;;;;;10.40;9.90;;;;;;;-143.83;100.00;62900.06;4899133;29;20424;-79
2022/11/19 10:09:01;;;;;;;10.10;9.60;;;;;;;-143.83;100.00;62900.06;4925660;29;20030;-78
2022/11/19 10:11:42;;;;;;;9.85;9.35;;;;;;;-143.83;100.00;62900.06;4901103;29;20048;-78
2022/11/19 10:14:14;;;;;;;10.40;9.90;;;;;;;-143.83;100.00;62900.06;4933029;29;20451;-77
2022/11/19 10:16:49;;;;;;;10.30;9.80;;;;;;;-143.83;100.00;62900.06;4929185;29;20530;-76
2022/11/19 10:19:38;;;;;;;10.38;9.88;;;;;;;-143.83;100.00;62900.06;4906621;29;20036;-80
2022/11/19 10:22:20;;;;;;;9.27;8.88;;;;;;;-143.83;100.00;62900.06;4927877;29;20036;-77
2022/11/19 10:25:11;;;;;;;10.13;9.63;;;;;;;-143.83;100.00;62900.06;4897695;29;20428;-81
2022/11/19 10:27:46;;;;;;;11.38;10.77;;;;;;;-143.83;100.00;62900.06;4910585;29;20123;-76
2022/11/19 10:30:22;;;;;;;10.70;10.18;;;;;;;-143.83;100.00;62900.06;4910988;29;20051;-79
2022/11/19 10:33:00;;;;;;;10.25;9.75;;;;;;;-143.83;100.00;62900.06;4904866;29;20084;-76
2022/11/19 10:35:36;;;;;;;10.75;10.20;;;;;;;-143.83;100.00;62900.06;4908760;29;20031;-79
2022/11/19 10:38:08;;;;;;;11.32;10.73;;;;;;;-143.83;100.00;62900.06;4907115;29;20056;-78
2022/11/19 10:40:48;;;;;;;10.07;9.57;;;;;;;-143.83;100.00;62900.06;4909567;29;20602;-78
2022/11/19 10:43:22;;;;;;;12.25;11.55;;;;;;;-143.83;100.00;62900.06;4888841;29;20037;-84
2022/11/19 10:45:48;;;;;;;10.13;9.63;;;;;;;-143.83;100.00;62900.06;4916595;29;20048;-79
2022/11/19 10:48:27;;;;;;;10.15;9.65;;;;;;;-143.83;100.00;62900.06;4916255;29;20043;-78
2022/11/19 10:50:54;;;;;;;10.20;9.70;;;;;;;-143.83;100.00;62900.06;4914434;29;20032;-72
2022/11/19 10:53:35;;;;;;;11.05;10.45;;;;;;;-143.83;100.00;62900.06;4909410;29;20391;-78
2022/11/19 10:56:04;;;;;;;10.80;10.20;;;;;;;-143.83;100.00;62900.06;4906170;29;20445;-79
2022/11/19 10:58:38;;;;;;;10.98;10.38;;;;;;;-143.83;100.00;62900.06;4909712;29;20403;-78
2022/11/19 11:01:14;;;;;;;10.13;9.63;;;;;;;-143.83;100.00;62900.06;4909377;29;20071;-80
2022/11/19 11:03:48;;;;;;;11.35;10.75;;;;;;;-143.83;100.00;62900.06;4906487;29;20134;-78
2022/11/19 11:06:13;;;;;;;10.90;10.30;;;;;;;-143.83;100.00;62900.06;4922457;29;20063;-79
2022/11/19 11:08:51;;;;;;;10.90;10.30;;;;;;;-143.83;100.00;62900.06;4897620;29;20032;-80
2022/11/19 11:14:50;;;;;;;11.52;10.93;;;;;;;-143.83;100.00;62900.06;4893980;29;20032;-78
2022/11/19 11:17:18;;;;;;;10.30;9.80;;;;;;;-143.83;100.00;62900.06;4910916;29;20048;-78
2022/11/19 11:19:44;;;;;;;9.82;9.35;;;;;;;-143.83;100.00;62900.06;4919636;29;20034;-78
2022/11/19 11:22:10;;;;;;;11.07;10.48;;;;;;;-143.83;100.00;62900.06;4897333;28;20115;-78
2022/11/19 11:24:37;;;;;;;9.68;9.18;;;;;;;-143.83;100.00;62900.06;4915135;29;20023;-82
2022/11/19 11:27:30;;;;;;;10.02;9.52;;;;;;;-143.83;100.00;62900.06;4928345;29;20098;-80